TimeEDT,TemperatureF,Dew PointF,Humidity,Sea Level PressureIn,VisibilityMPH,Wind Direction,Wind SpeedMPH,Gust SpeedMPH,PrecipitationIn,Events,Conditions,WindDirDegrees,DateUTC
12:15 AM,68.0,64.4,88,30.21,0.8,Calm,Calm,-,N/A,,Overcast,0,2013-07-08 04:15:00
12:35 AM,66.2,64.4,94,30.22,1.8,Calm,Calm,-,N/A,,Overcast,0,2013-07-08 04:35:00
12:55 AM,68.0,64.4,88,30.21,1.2,Calm,Calm,-,N/A,,Overcast,0,2013-07-08 04:55:00
1:15 AM,68.0,64.4,88,30.21,0.5,Calm,Calm,-,N/A,,Overcast,0,2013-07-08 05:15:00
1:35 AM,66.2,64.4,94,30.20,0.8,Calm,Calm,-,N/A,,Overcast,0,2013-07-08 05:35:00
1:55 AM,66.2,64.4,94,30.20,0.8,Calm,Calm,-,N/A,,Overcast,0,2013-07-08 05:55:00
2:15 AM,66.2,64.4,94,30.20,0.2,Calm,Calm,-,N/A,,Overcast,0,2013-07-08 06:15:00
2:35 AM,66.2,64.4,94,30.19,0.5,Calm,Calm,-,N/A,,Overcast,0,2013-07-08 06:35:00
2:55 AM,66.2,64.4,94,30.20,0.8,Calm,Calm,-,N/A,,Overcast,0,2013-07-08 06:55:00
3:15 AM,66.2,64.4,94,30.20,3.0,Calm,Calm,-,N/A,,Overcast,0,2013-07-08 07:15:00
3:35 AM,66.2,64.4,94,30.21,7.0,Calm,Calm,-,N/A,,Overcast,0,2013-07-08 07:35:00
3:55 AM,64.4,64.4,100,30.21,7.0,Calm,Calm,-,N/A,,Overcast,0,2013-07-08 07:55:00
4:15 AM,64.4,64.4,100,30.21,10.0,Calm,Calm,-,N/A,,Overcast,0,2013-07-08 08:15:00
4:35 AM,64.4,64.4,100,30.21,10.0,Calm,Calm,-,N/A,,Overcast,0,2013-07-08 08:35:00
4:55 AM,64.4,62.6,94,30.22,10.0,Calm,Calm,-,N/A,,Overcast,0,2013-07-08 08:55:00
5:15 AM,64.4,62.6,94,30.22,10.0,Calm,Calm,-,N/A,,Overcast,0,2013-07-08 09:15:00
5:35 AM,64.4,62.6,94,30.22,10.0,Calm,Calm,-,N/A,,Overcast,0,2013-07-08 09:35:00
5:55 AM,64.4,62.6,94,30.22,10.0,Calm,Calm,-,N/A,,Overcast,0,2013-07-08 09:55:00
6:15 AM,64.4,62.6,94,30.23,10.0,Calm,Calm,-,N/A,,Overcast,0,2013-07-08 10:15:00
6:55 AM,64.4,62.6,94,30.23,10.0,Calm,Calm,-,N/A,,Overcast,0,2013-07-08 10:55:00
7:15 AM,64.4,62.6,94,30.23,10.0,Calm,Calm,-,N/A,,Overcast,0,2013-07-08 11:15:00
7:35 AM,64.4,62.6,94,30.23,10.0,Calm,Calm,-,N/A,,Overcast,0,2013-07-08 11:35:00
7:55 AM,64.4,62.6,94,30.23,10.0,Calm,Calm,-,N/A,,Overcast,0,2013-07-08 11:55:00
8:15 AM,64.4,62.6,94,30.24,10.0,Calm,Calm,-,N/A,,Overcast,0,2013-07-08 12:15:00
8:35 AM,66.2,62.6,88,30.24,10.0,Calm,Calm,-,N/A,,Overcast,0,2013-07-08 12:35:00
8:55 AM,66.2,62.6,88,30.24,10.0,Calm,Calm,-,N/A,,Overcast,0,2013-07-08 12:55:00
9:15 AM,66.2,62.6,88,30.24,10.0,Calm,Calm,-,N/A,,Overcast,0,2013-07-08 13:15:00
9:35 AM,68.0,64.4,88,30.25,10.0,Calm,Calm,-,N/A,,Overcast,0,2013-07-08 13:35:00
9:55 AM,68.0,64.4,88,30.25,10.0,Calm,Calm,-,N/A,,Overcast,0,2013-07-08 13:55:00
10:15 AM,69.8,64.4,83,30.25,10.0,Calm,Calm,-,N/A,,Overcast,0,2013-07-08 14:15:00
10:35 AM,71.6,66.2,83,30.25,10.0,Calm,Calm,-,N/A,,Overcast,0,2013-07-08 14:35:00
10:55 AM,73.4,66.2,78,30.25,10.0,Calm,Calm,-,N/A,,Mostly Cloudy,0,2013-07-08 14:55:00
11:15 AM,77.0,66.2,69,30.25,10.0,Calm,Calm,-,N/A,,Scattered Clouds,0,2013-07-08 15:15:00
11:35 AM,77.0,66.2,69,30.25,10.0,Calm,Calm,-,N/A,,Clear,0,2013-07-08 15:35:00
11:55 AM,78.8,66.2,65,30.25,10.0,SSW,3.5,-,N/A,,Clear,210,2013-07-08 15:55:00
12:15 PM,80.6,64.4,58,30.24,10.0,Calm,Calm,-,N/A,,Clear,0,2013-07-08 16:15:00
12:35 PM,77.0,64.4,65,30.24,10.0,Calm,Calm,-,N/A,,Mostly Cloudy,0,2013-07-08 16:35:00
12:55 PM,80.6,64.4,58,30.24,10.0,SSE,4.6,-,N/A,,Mostly Cloudy,150,2013-07-08 16:55:00
1:15 PM,82.4,62.6,51,30.23,10.0,Calm,Calm,-,N/A,,Mostly Cloudy,0,2013-07-08 17:15:00
1:35 PM,82.4,64.4,54,30.23,10.0,Calm,Calm,-,N/A,,Scattered Clouds,0,2013-07-08 17:35:00
1:55 PM,82.4,64.4,54,30.23,10.0,South,3.5,-,N/A,,Mostly Cloudy,170,2013-07-08 17:55:00
2:15 PM,82.4,64.4,54,30.22,10.0,Calm,Calm,-,N/A,,Scattered Clouds,0,2013-07-08 18:15:00
2:35 PM,82.4,60.8,48,30.22,10.0,Calm,Calm,-,N/A,,Mostly Cloudy,0,2013-07-08 18:35:00
2:55 PM,80.6,64.4,58,30.21,10.0,Calm,Calm,-,N/A,,Mostly Cloudy,0,2013-07-08 18:55:00
3:15 PM,80.6,66.2,61,30.21,10.0,Calm,Calm,-,N/A,,Mostly Cloudy,0,2013-07-08 19:15:00
3:35 PM,80.6,62.6,54,30.20,10.0,Calm,Calm,-,N/A,,Scattered Clouds,0,2013-07-08 19:35:00
3:55 PM,82.4,64.4,54,30.19,10.0,WSW,3.5,-,N/A,,Scattered Clouds,250,2013-07-08 19:55:00
4:15 PM,82.4,62.6,51,30.18,10.0,Calm,Calm,-,N/A,,Clear,0,2013-07-08 20:15:00
4:35 PM,82.4,64.4,54,30.18,10.0,SSE,3.5,-,N/A,,Clear,160,2013-07-08 20:35:00
4:55 PM,80.6,62.6,54,30.18,10.0,Calm,Calm,-,N/A,,Scattered Clouds,0,2013-07-08 20:55:00
5:15 PM,80.6,64.4,58,30.18,10.0,Calm,Calm,-,N/A,,Scattered Clouds,0,2013-07-08 21:15:00
5:35 PM,80.6,66.2,61,30.17,10.0,Calm,Calm,-,N/A,,Scattered Clouds,0,2013-07-08 21:35:00
5:55 PM,80.6,68.0,65,30.17,10.0,Calm,Calm,-,N/A,,Clear,0,2013-07-08 21:55:00
6:15 PM,80.6,64.4,58,30.17,10.0,Calm,Calm,-,N/A,,Clear,0,2013-07-08 22:15:00
6:35 PM,80.6,64.4,58,30.16,10.0,Calm,Calm,-,N/A,,Clear,0,2013-07-08 22:35:00
6:55 PM,80.6,66.2,61,30.16,10.0,Calm,Calm,-,N/A,,Clear,0,2013-07-08 22:55:00
7:15 PM,80.6,64.4,58,30.16,10.0,Calm,Calm,-,N/A,,Clear,0,2013-07-08 23:15:00
7:35 PM,78.8,68.0,69,30.16,10.0,Calm,Calm,-,N/A,,Clear,0,2013-07-08 23:35:00
7:55 PM,78.8,69.8,74,30.16,10.0,Calm,Calm,-,N/A,,Clear,0,2013-07-08 23:55:00
8:15 PM,77.0,68.0,74,30.17,10.0,Calm,Calm,-,N/A,,Clear,0,2013-07-09 00:15:00
8:35 PM,75.2,68.0,78,30.17,10.0,Calm,Calm,-,N/A,,Clear,0,2013-07-09 00:35:00
8:55 PM,73.4,68.0,83,30.17,10.0,Calm,Calm,-,N/A,,Clear,0,2013-07-09 00:55:00
9:15 PM,73.4,68.0,83,30.17,10.0,ENE,3.5,-,N/A,,Clear,70,2013-07-09 01:15:00
9:35 PM,71.6,68.0,88,30.17,10.0,Calm,Calm,-,N/A,,Clear,0,2013-07-09 01:35:00
9:55 PM,71.6,68.0,88,30.18,10.0,East,5.8,-,N/A,,Clear,90,2013-07-09 01:55:00
10:15 PM,71.6,68.0,88,30.20,10.0,Calm,Calm,-,N/A,,Clear,0,2013-07-09 02:15:00
10:35 PM,71.6,68.0,88,30.21,10.0,Calm,Calm,-,N/A,,Clear,0,2013-07-09 02:35:00
10:55 PM,69.8,68.0,94,30.21,10.0,North,-9999.0,-,N/A,,Clear,0,2013-07-09 02:55:00
11:15 PM,69.8,68.0,94,30.22,7.0,North,-9999.0,-,N/A,,Clear,0,2013-07-09 03:15:00
11:35 PM,69.8,68.0,94,30.22,5.0,North,-9999.0,-,N/A,,Clear,0,2013-07-09 03:35:00
11:55 PM,69.8,68.0,94,30.22,5.0,North,-9999.0,-,N/A,,Scattered Clouds,0,2013-07-09 03:55:00